createdAt,value
2022-12-01T00:01:21.299Z,39.97
2022-12-01T00:03:48.617Z,39.15
2022-12-01T00:06:21.311Z,38.85
2022-12-01T00:09:09.319Z,38.60
2022-12-01T00:11:37.952Z,38.95
2022-12-01T00:14:05.818Z,41.35
2022-12-01T00:16:33.954Z,41.85
2022-12-01T00:19:00.905Z,46.35
2022-12-01T00:21:28.491Z,46.30
2022-12-01T00:23:57.908Z,42.92
2022-12-01T00:26:26.726Z,42.53
2022-12-01T00:28:57.175Z,44.25
2022-12-01T00:31:25.375Z,43.05
2022-12-01T00:33:52.328Z,40.28
2022-12-01T00:36:19.486Z,43.90
2022-12-01T00:38:47.171Z,40.35
2022-12-01T00:41:14.285Z,44.47
2022-12-01T00:43:41.264Z,38.33
2022-12-01T00:46:08.744Z,41.47
2022-12-01T00:48:35.611Z,37.28
2022-12-01T00:51:03.169Z,36.80
2022-12-01T00:53:30.617Z,37.63
2022-12-01T00:55:57.611Z,38.88
2022-12-01T00:58:25.229Z,40.67
2022-12-01T01:01:02.643Z,37.67
2022-12-01T01:03:30.807Z,36.97
2022-12-01T01:06:04.730Z,35.17
2022-12-01T01:08:31.657Z,35.40
2022-12-01T01:11:01.323Z,37.20
2022-12-01T01:13:28.951Z,37.10
2022-12-01T01:16:03.268Z,33.22
2022-12-01T01:18:30.883Z,35.58
2022-12-01T01:21:15.423Z,35.55
2022-12-01T01:23:42.703Z,34.95
2022-12-01T01:26:20.027Z,36.20
2022-12-01T01:28:49.066Z,35.17
2022-12-01T01:31:25.363Z,36.03
2022-12-01T01:33:52.669Z,39.05
2022-12-01T01:36:19.999Z,38.15
2022-12-01T01:38:47.675Z,34.78
2022-12-01T01:41:14.944Z,34.13
2022-12-01T01:43:47.528Z,33.40
2022-12-01T01:46:29.497Z,32.92
2022-12-01T01:49:13.678Z,33.47
2022-12-01T01:51:46.671Z,33.88
2022-12-01T01:54:23.934Z,34.60
2022-12-01T01:56:52.543Z,31.92
2022-12-01T01:59:29.525Z,35.38
2022-12-01T02:02:06.562Z,36.13
2022-12-01T02:04:37.531Z,33.42
2022-12-01T02:07:05.750Z,37.95
2022-12-01T02:09:32.520Z,34.20
2022-12-01T02:12:49.834Z,34.88
2022-12-01T02:15:25.366Z,35.85
2022-12-01T02:18:21.246Z,33.72
2022-12-01T02:21:19.189Z,34.80
2022-12-01T02:24:06.754Z,35.22
2022-12-01T02:26:50.697Z,32.67
2022-12-01T02:29:54.775Z,34.35
2022-12-01T02:32:54.918Z,32.97
2022-12-01T02:35:45.018Z,34.60
2022-12-01T02:38:25.606Z,34.53
2022-12-01T02:41:10.564Z,36.95
2022-12-01T02:44:05.989Z,36.58
2022-12-01T02:46:47.490Z,37.70
2022-12-01T02:49:20.964Z,37.75
2022-12-01T02:51:52.242Z,38.90
2022-12-01T02:54:20.857Z,40.35
2022-12-01T02:56:52.838Z,42.45
2022-12-01T02:59:19.650Z,38.50
2022-12-01T03:02:04.793Z,37.03
2022-12-01T03:04:58.626Z,40.95
2022-12-01T03:07:51.444Z,38.38
2022-12-01T03:10:27.025Z,38.10
2022-12-01T03:12:59.458Z,35.65
2022-12-01T03:15:44.958Z,39.72
2022-12-01T03:18:39.843Z,39.40
2022-12-01T03:21:12.640Z,44.70
2022-12-01T03:23:47.757Z,42.35
2022-12-01T03:26:21.749Z,37.03
2022-12-01T03:28:58.929Z,41.88
2022-12-01T03:31:35.245Z,42.47
2022-12-01T03:34:12.846Z,40.60
2022-12-01T03:36:55.982Z,42.20
2022-12-01T03:39:28.922Z,41.63
2022-12-01T03:42:07.819Z,42.83
2022-12-01T03:44:47.826Z,47.13
2022-12-01T03:47:24.112Z,43.95
2022-12-01T03:49:54.029Z,46.83
2022-12-01T03:52:43.515Z,44.63
2022-12-01T03:55:31.215Z,41.38
2022-12-01T03:58:12.334Z,42.92
2022-12-01T04:00:40.054Z,41.47
2022-12-01T04:03:07.504Z,44.90
2022-12-01T04:05:35.309Z,44.20
2022-12-01T04:08:02.195Z,41.00
2022-12-01T04:10:29.304Z,44.97
2022-12-01T04:12:59.430Z,43.53
2022-12-01T04:15:27.629Z,43.58
2022-12-01T04:17:54.938Z,42.00
2022-12-01T04:20:22.669Z,43.58
2022-12-01T04:22:49.641Z,45.80
2022-12-01T04:25:16.701Z,47.05
2022-12-01T04:27:43.570Z,44.72
2022-12-01T04:30:11.237Z,46.35
2022-12-01T04:32:43.565Z,47.33
2022-12-01T04:35:12.312Z,44.25
2022-12-01T04:37:40.014Z,45.42
2022-12-01T04:40:08.575Z,42.78
2022-12-01T04:42:35.410Z,43.58
2022-12-01T04:45:02.341Z,41.10
2022-12-01T04:47:29.240Z,43.58
2022-12-01T04:49:56.046Z,43.45
2022-12-01T04:52:22.967Z,43.15
2022-12-01T04:54:49.787Z,43.80
2022-12-01T04:57:16.638Z,40.65
2022-12-01T04:59:43.528Z,38.78
2022-12-01T05:02:10.326Z,41.38
2022-12-01T05:04:39.793Z,39.25
2022-12-01T05:07:06.519Z,43.00
2022-12-01T05:09:33.293Z,39.95
2022-12-01T05:12:00.082Z,42.85
2022-12-01T05:14:26.917Z,40.67
2022-12-01T05:16:55.106Z,42.20
2022-12-01T05:19:40.217Z,43.72
2022-12-01T05:22:06.974Z,40.60
2022-12-01T05:24:33.779Z,44.17
2022-12-01T05:27:00.489Z,41.45
2022-12-01T05:29:27.215Z,42.72
2022-12-01T05:31:54.042Z,45.40
2022-12-01T05:34:20.934Z,41.17
2022-12-01T05:36:47.726Z,45.63
2022-12-01T05:39:14.653Z,42.00
2022-12-01T05:41:41.383Z,40.45
2022-12-01T05:44:08.120Z,42.17
2022-12-01T05:46:34.932Z,42.10
2022-12-01T05:49:01.747Z,40.50
2022-12-01T05:51:28.579Z,45.60
2022-12-01T05:53:55.428Z,43.40
2022-12-01T05:56:22.302Z,44.95
2022-12-01T05:58:49.147Z,40.17
2022-12-01T06:01:16.315Z,45.00
2022-12-01T06:03:43.246Z,43.45
2022-12-01T06:06:10.061Z,47.03
2022-12-01T06:08:36.862Z,43.40
2022-12-01T06:11:03.716Z,47.47
2022-12-01T06:13:30.437Z,46.45
2022-12-01T06:15:58.996Z,46.97
2022-12-01T06:18:27.796Z,44.03
2022-12-01T06:20:54.531Z,44.22
2022-12-01T06:23:22.162Z,38.13
2022-12-01T06:25:51.174Z,44.25
2022-12-01T06:28:17.970Z,45.53
2022-12-01T06:30:45.289Z,44.42
2022-12-01T06:33:12.557Z,44.25
2022-12-01T06:35:39.515Z,43.78
2022-12-01T06:38:06.478Z,44.65
2022-12-01T06:40:33.384Z,40.90
2022-12-01T06:43:04.272Z,45.53
2022-12-01T06:45:31.594Z,44.60
2022-12-01T06:47:58.497Z,42.78
2022-12-01T06:50:25.959Z,43.58
2022-12-01T06:52:53.087Z,47.10
2022-12-01T06:55:20.130Z,44.40
2022-12-01T06:57:47.361Z,44.78
2022-12-01T07:00:15.113Z,41.70
2022-12-01T07:02:42.241Z,43.13
2022-12-01T07:05:09.403Z,44.67
2022-12-01T07:07:39.182Z,46.88
2022-12-01T07:10:07.816Z,42.53
2022-12-01T07:12:34.905Z,44.25
2022-12-01T07:15:02.215Z,48.42
2022-12-01T07:17:30.013Z,48.28
2022-12-01T07:19:57.499Z,46.97
2022-12-01T07:22:28.116Z,48.30
2022-12-01T07:24:57.928Z,45.78
2022-12-01T07:27:24.661Z,59.63
2022-12-01T07:29:51.585Z,53.63
2022-12-01T07:32:18.502Z,78.80
2022-12-01T07:34:45.310Z,57.53
2022-12-01T07:37:12.126Z,58.45
2022-12-01T07:39:38.914Z,55.25
2022-12-01T07:42:05.984Z,80.38
2022-12-01T07:44:32.705Z,49.90
2022-12-01T07:46:59.704Z,50.92
2022-12-01T07:49:26.777Z,49.97
2022-12-01T07:51:53.694Z,48.72
2022-12-01T07:54:21.292Z,44.90
2022-12-01T07:56:48.094Z,46.42
2022-12-01T07:59:14.927Z,45.25
2022-12-01T08:01:44.639Z,46.72
2022-12-01T08:04:12.467Z,46.78
2022-12-01T08:06:39.319Z,46.47
2022-12-01T08:09:06.266Z,43.17
2022-12-01T08:11:33.193Z,48.80
2022-12-01T08:13:59.920Z,41.58
2022-12-01T08:16:27.964Z,53.08
2022-12-01T08:18:55.149Z,49.88
2022-12-01T08:21:24.025Z,48.30
2022-12-01T08:23:58.396Z,51.97
2022-12-01T08:26:27.298Z,45.38
2022-12-01T08:28:54.794Z,49.55
2022-12-01T08:31:31.031Z,47.00
2022-12-01T08:33:58.662Z,47.72
2022-12-01T08:36:26.115Z,51.92
2022-12-01T08:38:55.380Z,50.55
2022-12-01T08:41:23.119Z,55.67
2022-12-01T08:43:58.099Z,54.03
2022-12-01T08:46:36.475Z,54.17
2022-12-01T08:49:05.859Z,56.78
2022-12-01T08:51:33.122Z,55.38
2022-12-01T08:54:00.893Z,52.08
2022-12-01T08:56:34.649Z,61.97
2022-12-01T08:59:02.304Z,48.45
2022-12-01T09:01:29.704Z,54.85
2022-12-01T09:04:10.328Z,56.08
2022-12-01T09:06:46.958Z,55.78
2022-12-01T09:09:26.868Z,50.10
2022-12-01T09:11:54.291Z,54.08
2022-12-01T09:14:23.184Z,50.55
2022-12-01T09:16:50.996Z,52.63
2022-12-01T09:19:24.671Z,55.17
2022-12-01T09:21:52.692Z,50.92
2022-12-01T09:24:19.577Z,59.13
2022-12-01T09:26:46.416Z,49.15
2022-12-01T09:29:16.024Z,49.80
2022-12-01T09:31:43.751Z,50.60
2022-12-01T09:34:19.246Z,53.63
2022-12-01T09:36:47.694Z,55.53
2022-12-01T09:39:19.024Z,59.72
2022-12-01T09:42:06.153Z,54.33
2022-12-01T09:45:18.089Z,59.78
2022-12-01T09:47:46.647Z,61.10
2022-12-01T09:50:18.694Z,61.80
2022-12-01T09:52:56.721Z,57.25
2022-12-01T09:55:26.117Z,58.20
2022-12-01T09:58:00.950Z,62.53
2022-12-01T10:00:34.166Z,61.58
2022-12-01T10:03:15.844Z,64.57
2022-12-01T10:06:26.660Z,65.65
2022-12-01T10:09:20.868Z,66.63
2022-12-01T10:11:50.739Z,58.38
2022-12-01T10:14:21.011Z,64.10
2022-12-01T10:17:40.341Z,66.80
2022-12-01T10:20:10.549Z,66.78
2022-12-01T10:23:43.626Z,66.13
2022-12-01T10:26:17.858Z,60.50
2022-12-01T10:29:01.196Z,61.95
2022-12-01T10:31:40.911Z,68.38
2022-12-01T10:34:28.570Z,64.53
2022-12-01T10:36:57.826Z,66.43
2022-12-01T10:39:31.202Z,64.38
2022-12-01T10:42:07.935Z,68.00
2022-12-01T10:44:36.467Z,70.22
2022-12-01T10:47:05.967Z,66.05
2022-12-01T10:49:40.817Z,64.45
2022-12-01T10:52:28.334Z,63.92
2022-12-01T10:54:55.052Z,64.82
2022-12-01T10:57:23.606Z,67.85
2022-12-01T10:59:59.889Z,65.68
2022-12-01T11:02:30.771Z,66.22
2022-12-01T11:05:01.126Z,66.35
2022-12-01T11:07:33.528Z,66.47
2022-12-01T11:10:18.702Z,69.05
2022-12-01T11:12:55.257Z,61.97
2022-12-01T11:15:31.108Z,65.63
2022-12-01T11:18:04.234Z,63.38
2022-12-01T11:20:38.019Z,65.25
2022-12-01T11:23:24.535Z,65.90
2022-12-01T11:26:15.911Z,66.72
2022-12-01T11:29:27.941Z,60.25
2022-12-01T11:31:55.617Z,62.70
2022-12-01T11:34:31.018Z,63.50
2022-12-01T11:37:17.013Z,66.43
2022-12-01T11:39:47.869Z,62.70
2022-12-01T11:42:26.125Z,58.92
2022-12-01T11:45:05.338Z,57.47
2022-12-01T11:47:32.147Z,63.17
2022-12-01T11:50:03.174Z,64.28
2022-12-01T11:52:44.874Z,66.30
2022-12-01T11:55:11.678Z,63.10
2022-12-01T11:57:44.342Z,58.45
2022-12-01T12:00:23.156Z,59.40
2022-12-01T12:03:41.163Z,59.75
2022-12-01T12:09:59.017Z,60.90
2022-12-01T12:13:21.251Z,54.78
2022-12-01T12:16:27.533Z,54.38
2022-12-01T12:19:34.235Z,51.58
2022-12-01T12:22:34.199Z,54.88
2022-12-01T12:25:42.683Z,53.15
2022-12-01T12:28:37.679Z,57.55
2022-12-01T12:31:24.839Z,57.35
2022-12-01T12:34:37.291Z,57.10
2022-12-01T12:37:29.070Z,55.75
2022-12-01T12:40:32.861Z,53.58
2022-12-01T12:43:24.767Z,57.42
2022-12-01T12:46:12.843Z,50.05
2022-12-01T12:49:36.240Z,55.65
2022-12-01T12:52:26.322Z,47.05
2022-12-01T12:55:37.109Z,49.40
2022-12-01T12:58:26.555Z,50.83
2022-12-01T13:01:06.766Z,53.60
2022-12-01T13:04:04.387Z,52.50
2022-12-01T13:06:45.705Z,54.25
2022-12-01T13:09:28.641Z,51.03
2022-12-01T13:12:26.020Z,51.50
2022-12-01T13:15:02.010Z,50.60
2022-12-01T13:17:41.307Z,46.38
2022-12-01T13:20:17.480Z,49.25
2022-12-01T13:22:47.343Z,45.70
2022-12-01T13:25:23.684Z,50.42
2022-12-01T13:27:52.334Z,51.15
2022-12-01T13:30:27.060Z,48.47
2022-12-01T13:33:05.568Z,45.72
2022-12-01T13:35:39.006Z,43.67
2022-12-01T13:38:35.015Z,53.08
2022-12-01T13:41:19.816Z,46.75
2022-12-01T13:43:59.097Z,46.92
2022-12-01T13:46:48.058Z,44.47
2022-12-01T13:49:41.938Z,47.30
2022-12-01T13:52:25.941Z,46.72
2022-12-01T13:55:08.125Z,42.25
2022-12-01T13:57:45.074Z,44.08
2022-12-01T14:00:29.756Z,43.67
2022-12-01T14:03:15.191Z,42.80
2022-12-01T14:05:41.979Z,41.65
2022-12-01T14:08:31.510Z,38.80
2022-12-01T14:11:27.049Z,41.65
2022-12-01T14:14:03.209Z,39.72
2022-12-01T14:16:53.949Z,45.90
2022-12-01T14:19:47.646Z,44.33
2022-12-01T14:22:43.852Z,41.15
2022-12-01T14:25:22.927Z,43.60
2022-12-01T14:27:55.218Z,42.85
2022-12-01T14:30:40.463Z,36.78
2022-12-01T14:33:54.241Z,39.15
2022-12-01T14:36:23.795Z,37.55
2022-12-01T14:38:59.482Z,41.95
2022-12-01T14:41:52.012Z,38.53
2022-12-01T14:44:42.347Z,38.45
2022-12-01T14:47:22.804Z,39.45
2022-12-01T14:50:12.149Z,37.38
2022-12-01T14:52:52.235Z,41.58
2022-12-01T14:55:40.313Z,39.70
2022-12-01T14:58:39.206Z,38.03
2022-12-01T15:01:13.661Z,37.10
2022-12-01T15:03:48.784Z,38.90
2022-12-01T15:06:25.780Z,32.92
2022-12-01T15:09:33.649Z,38.85
2022-12-01T15:12:07.289Z,38.78
2022-12-01T15:14:48.028Z,39.70
2022-12-01T15:17:44.267Z,39.55
2022-12-01T15:20:34.635Z,33.85
2022-12-01T15:23:12.402Z,31.70
2022-12-01T15:25:44.019Z,37.88
2022-12-01T15:28:16.884Z,36.53
2022-12-01T15:30:48.319Z,39.30
2022-12-01T15:33:37.563Z,36.55
2022-12-01T15:36:07.278Z,39.20
2022-12-01T15:38:37.962Z,36.47
2022-12-01T15:41:28.896Z,39.00
2022-12-01T15:44:03.442Z,37.97
2022-12-01T15:46:34.552Z,41.42
2022-12-01T15:49:29.252Z,38.80
2022-12-01T15:52:10.210Z,36.95
2022-12-01T15:54:38.794Z,38.50
2022-12-01T15:57:07.177Z,39.97
2022-12-01T15:59:44.410Z,44.08
2022-12-01T16:02:28.643Z,39.72
2022-12-01T16:05:20.426Z,39.83
2022-12-01T16:08:12.546Z,45.85
2022-12-01T16:10:36.812Z,53.67
2022-12-01T16:13:49.690Z,57.30
2022-12-01T16:16:51.238Z,62.47
2022-12-01T16:19:17.950Z,61.78
2022-12-01T16:22:10.805Z,66.85
2022-12-01T16:24:54.608Z,59.70
2022-12-01T16:27:30.634Z,61.22
2022-12-01T16:30:22.992Z,61.03
2022-12-01T16:32:50.307Z,55.88
2022-12-01T16:35:26.407Z,54.00
2022-12-01T16:37:54.713Z,50.85
2022-12-01T16:40:21.756Z,50.95
2022-12-01T16:42:49.916Z,46.42
2022-12-01T16:45:18.946Z,48.72
2022-12-01T16:47:48.248Z,47.63
2022-12-01T16:50:17.773Z,46.88
2022-12-01T16:52:45.923Z,44.03
2022-12-01T16:55:46.573Z,45.55
2022-12-01T16:58:14.166Z,35.67
2022-12-01T17:00:41.424Z,42.53
2022-12-01T17:03:16.534Z,41.63
2022-12-01T17:05:43.460Z,41.90
2022-12-01T17:08:10.384Z,41.58
2022-12-01T17:10:41.806Z,42.85
2022-12-01T17:13:08.607Z,49.33
2022-12-01T17:15:35.508Z,43.78
2022-12-01T17:18:02.409Z,43.42
2022-12-01T17:20:29.220Z,45.13
2022-12-01T17:22:56.015Z,48.92
2022-12-01T17:25:22.844Z,41.10
2022-12-01T17:27:51.418Z,39.97
2022-12-01T17:30:18.282Z,43.42
2022-12-01T17:32:46.511Z,43.90
2022-12-01T17:35:13.477Z,48.25
2022-12-01T17:37:40.543Z,49.63
2022-12-01T17:40:13.677Z,46.38
2022-12-01T17:42:46.810Z,53.05
2022-12-01T17:45:17.935Z,55.85
2022-12-01T17:47:44.787Z,49.53
2022-12-01T17:50:11.952Z,49.30
2022-12-01T17:52:38.862Z,47.58
2022-12-01T17:55:06.931Z,47.47
2022-12-01T17:57:34.214Z,50.35
2022-12-01T18:00:01.891Z,47.30
2022-12-01T18:02:35.646Z,44.05
2022-12-01T18:05:02.601Z,46.38
2022-12-01T18:07:29.722Z,47.60
2022-12-01T18:09:56.526Z,45.80
2022-12-01T18:12:23.385Z,51.63
2022-12-01T18:14:50.440Z,51.78
2022-12-01T18:17:17.640Z,51.40
2022-12-01T18:19:44.458Z,54.78
2022-12-01T18:22:11.286Z,48.10
2022-12-01T18:24:38.219Z,45.17
2022-12-01T18:27:05.168Z,48.05
2022-12-01T18:29:31.922Z,49.25
2022-12-01T18:31:59.906Z,46.08
2022-12-01T18:34:31.138Z,47.70
2022-12-01T18:36:58.279Z,46.50
2022-12-01T18:39:25.202Z,45.35
2022-12-01T18:41:52.048Z,43.10
2022-12-01T18:44:21.005Z,41.28
2022-12-01T18:46:48.053Z,40.40
2022-12-01T18:49:15.068Z,44.58
2022-12-01T18:51:42.327Z,44.60
2022-12-01T18:54:13.894Z,41.67
2022-12-01T18:56:40.783Z,45.55
2022-12-01T18:59:10.678Z,50.20
2022-12-01T19:01:43.528Z,50.85
2022-12-01T19:04:11.023Z,51.85
2022-12-01T19:06:40.726Z,52.03
2022-12-01T19:09:10.480Z,50.47
2022-12-01T19:11:40.377Z,48.13
2022-12-01T19:14:12.826Z,53.58
2022-12-01T19:16:40.578Z,47.78
2022-12-01T19:19:07.497Z,45.25
2022-12-01T19:21:34.299Z,44.85
2022-12-01T19:24:01.227Z,43.92
2022-12-01T19:26:28.153Z,45.42
2022-12-01T19:28:55.045Z,40.75
2022-12-01T19:31:24.939Z,44.85
2022-12-01T19:33:55.309Z,41.50
2022-12-01T19:36:27.158Z,41.50
2022-12-01T19:38:57.919Z,43.55
2022-12-01T19:41:26.105Z,48.03
2022-12-01T19:43:55.178Z,49.75
2022-12-01T19:46:25.052Z,51.20
2022-12-01T19:49:00.394Z,67.35
2022-12-01T19:51:35.131Z,82.93
2022-12-01T19:54:07.413Z,121.60
2022-12-01T19:56:34.507Z,105.50
2022-12-01T19:59:01.538Z,75.70
2022-12-01T20:01:28.916Z,68.05
2022-12-01T20:03:55.931Z,58.00
2022-12-01T20:06:29.529Z,54.20
2022-12-01T20:09:00.410Z,53.67
2022-12-01T20:11:32.942Z,57.97
2022-12-01T20:14:00.202Z,65.57
2022-12-01T20:16:28.371Z,66.55
2022-12-01T20:18:56.096Z,59.30
2022-12-01T20:21:29.081Z,61.17
2022-12-01T20:24:05.287Z,53.33
2022-12-01T20:26:40.515Z,52.38
2022-12-01T20:29:29.085Z,55.08
2022-12-01T20:31:59.005Z,58.15
2022-12-01T20:34:30.527Z,51.78
2022-12-01T20:36:58.316Z,51.55
2022-12-01T20:39:25.294Z,60.17
2022-12-01T20:41:52.330Z,72.07
2022-12-01T20:44:19.572Z,69.90
2022-12-01T20:46:47.371Z,69.45
2022-12-01T20:49:16.882Z,72.25
2022-12-01T20:51:44.058Z,64.38
2022-12-01T20:54:30.858Z,66.47
2022-12-01T20:56:58.842Z,64.78
2022-12-01T20:59:26.008Z,66.22
2022-12-01T21:01:52.775Z,64.25
2022-12-01T21:04:19.546Z,68.97
2022-12-01T21:06:46.854Z,62.10
2022-12-01T21:09:14.811Z,63.13
2022-12-01T21:12:15.110Z,61.38
2022-12-01T21:15:05.868Z,62.85
2022-12-01T21:18:03.295Z,62.00
2022-12-01T21:20:35.931Z,57.33
2022-12-01T21:23:12.320Z,53.53
2022-12-01T21:25:41.407Z,53.65
2022-12-01T21:28:24.097Z,54.97
2022-12-01T21:31:12.228Z,50.88
2022-12-01T21:33:39.991Z,49.35
2022-12-01T21:36:19.508Z,56.33
2022-12-01T21:38:53.553Z,51.05
2022-12-01T21:41:29.403Z,48.65
2022-12-01T21:44:10.887Z,46.28
2022-12-01T21:46:41.136Z,46.58
2022-12-01T21:49:13.012Z,44.50
2022-12-01T21:51:39.800Z,46.50
2022-12-01T21:54:15.314Z,45.80
2022-12-01T21:56:42.658Z,46.47
2022-12-01T21:59:27.798Z,52.95
2022-12-01T22:01:57.129Z,46.90
2022-12-01T22:04:30.265Z,50.20
2022-12-01T22:06:58.442Z,49.63
2022-12-01T22:09:34.838Z,48.17
2022-12-01T22:12:10.515Z,49.78
2022-12-01T22:14:37.264Z,50.50
2022-12-01T22:17:06.777Z,48.38
2022-12-01T22:19:46.707Z,50.70
2022-12-01T22:22:16.443Z,48.17
2022-12-01T22:24:46.664Z,46.42
2022-12-01T22:27:31.275Z,48.15
2022-12-01T22:30:09.814Z,51.10
2022-12-01T22:32:55.263Z,47.13
2022-12-01T22:35:41.896Z,49.70
2022-12-01T22:38:08.684Z,53.17
2022-12-01T22:41:04.206Z,48.47
2022-12-01T22:43:41.747Z,47.65
2022-12-01T22:46:30.485Z,51.60
2022-12-01T22:49:22.049Z,51.70
2022-12-01T22:51:57.870Z,52.00
2022-12-01T22:54:43.721Z,56.70
2022-12-01T22:57:33.220Z,55.08
2022-12-01T23:00:16.079Z,51.25
2022-12-01T23:02:43.017Z,53.10
2022-12-01T23:05:29.287Z,54.25
2022-12-01T23:07:57.126Z,60.63
2022-12-01T23:10:33.657Z,57.85
2022-12-01T23:13:18.507Z,58.58
2022-12-01T23:15:51.367Z,66.35
2022-12-01T23:18:27.890Z,64.30
2022-12-01T23:20:57.887Z,67.80
2022-12-01T23:23:37.046Z,61.03
2022-12-01T23:26:08.095Z,61.33
2022-12-01T23:28:38.519Z,64.50
2022-12-01T23:31:05.385Z,67.18
2022-12-01T23:33:34.251Z,65.25
2022-12-01T23:36:16.146Z,68.60
2022-12-01T23:38:50.250Z,71.72
2022-12-01T23:41:26.759Z,69.07
2022-12-01T23:43:55.666Z,72.53
2022-12-01T23:46:25.077Z,69.80
2022-12-01T23:49:01.242Z,70.03
2022-12-01T23:51:43.443Z,69.57
2022-12-01T23:54:18.823Z,69.95
2022-12-01T23:56:55.603Z,77.18
2022-12-01T23:59:23.045Z,73.90
